sensor_id;sensor_type;location;lat;lon;timestamp;temperature;humidity
29031;DHT22;16122;50.236;11.734;2023-07-13T00:00:35;23.60;51.60
29031;DHT22;16122;50.236;11.734;2023-07-13T00:03:02;23.60;52.00
29031;DHT22;16122;50.236;11.734;2023-07-13T00:05:28;23.60;52.60
29031;DHT22;16122;50.236;11.734;2023-07-13T00:07:54;23.60;52.10
29031;DHT22;16122;50.236;11.734;2023-07-13T00:10:21;23.70;52.20
29031;DHT22;16122;50.236;11.734;2023-07-13T00:12:47;23.70;52.20
29031;DHT22;16122;50.236;11.734;2023-07-13T00:15:17;23.70;52.20
29031;DHT22;16122;50.236;11.734;2023-07-13T00:17:46;23.70;52.20
29031;DHT22;16122;50.236;11.734;2023-07-13T00:20:12;23.70;52.10
29031;DHT22;16122;50.236;11.734;2023-07-13T00:22:39;23.70;52.00
29031;DHT22;16122;50.236;11.734;2023-07-13T00:25:05;23.70;51.90
29031;DHT22;16122;50.236;11.734;2023-07-13T00:27:31;23.70;51.90
29031;DHT22;16122;50.236;11.734;2023-07-13T00:29:58;23.70;52.00
29031;DHT22;16122;50.236;11.734;2023-07-13T00:32:24;23.70;51.90
29031;DHT22;16122;50.236;11.734;2023-07-13T00:34:52;23.70;52.00
29031;DHT22;16122;50.236;11.734;2023-07-13T00:37:18;23.70;52.10
29031;DHT22;16122;50.236;11.734;2023-07-13T00:39:44;23.70;52.10
29031;DHT22;16122;50.236;11.734;2023-07-13T00:42:09;23.70;52.10
29031;DHT22;16122;50.236;11.734;2023-07-13T00:44:36;23.70;52.30
29031;DHT22;16122;50.236;11.734;2023-07-13T00:47:05;23.70;52.50
29031;DHT22;16122;50.236;11.734;2023-07-13T00:49:32;23.70;52.50
29031;DHT22;16122;50.236;11.734;2023-07-13T00:52:05;23.70;53.10
29031;DHT22;16122;50.236;11.734;2023-07-13T00:54:42;23.70;52.30
29031;DHT22;16122;50.236;11.734;2023-07-13T00:57:12;23.70;52.40
29031;DHT22;16122;50.236;11.734;2023-07-13T00:59:43;23.70;52.50
29031;DHT22;16122;50.236;11.734;2023-07-13T01:02:10;23.70;52.50
29031;DHT22;16122;50.236;11.734;2023-07-13T01:04:37;23.70;52.40
29031;DHT22;16122;50.236;11.734;2023-07-13T01:07:05;23.70;52.40
29031;DHT22;16122;50.236;11.734;2023-07-13T01:09:31;23.70;52.40
29031;DHT22;16122;50.236;11.734;2023-07-13T01:11:57;23.70;52.30
29031;DHT22;16122;50.236;11.734;2023-07-13T01:14:25;23.70;52.40
29031;DHT22;16122;50.236;11.734;2023-07-13T01:16:50;23.70;52.40
29031;DHT22;16122;50.236;11.734;2023-07-13T01:19:33;23.70;52.40
29031;DHT22;16122;50.236;11.734;2023-07-13T01:22:06;23.70;52.40
29031;DHT22;16122;50.236;11.734;2023-07-13T01:24:35;23.70;52.50
29031;DHT22;16122;50.236;11.734;2023-07-13T01:27:02;23.70;52.50
29031;DHT22;16122;50.236;11.734;2023-07-13T01:29:30;23.70;52.60
29031;DHT22;16122;50.236;11.734;2023-07-13T01:31:56;23.70;52.70
29031;DHT22;16122;50.236;11.734;2023-07-13T01:34:25;23.70;52.70
29031;DHT22;16122;50.236;11.734;2023-07-13T01:36:52;23.70;52.80
29031;DHT22;16122;50.236;11.734;2023-07-13T01:39:21;23.60;52.80
29031;DHT22;16122;50.236;11.734;2023-07-13T01:41:47;23.70;52.80
29031;DHT22;16122;50.236;11.734;2023-07-13T01:44:13;23.70;52.80
29031;DHT22;16122;50.236;11.734;2023-07-13T01:46:39;23.70;52.80
29031;DHT22;16122;50.236;11.734;2023-07-13T01:49:05;23.70;52.80
29031;DHT22;16122;50.236;11.734;2023-07-13T01:51:31;23.60;52.70
29031;DHT22;16122;50.236;11.734;2023-07-13T01:53:57;23.60;52.70
29031;DHT22;16122;50.236;11.734;2023-07-13T01:56:23;23.60;52.70
29031;DHT22;16122;50.236;11.734;2023-07-13T01:58:49;23.60;52.70
29031;DHT22;16122;50.236;11.734;2023-07-13T02:01:15;23.60;52.60
29031;DHT22;16122;50.236;11.734;2023-07-13T02:03:41;23.60;52.60
29031;DHT22;16122;50.236;11.734;2023-07-13T02:06:06;23.60;52.60
29031;DHT22;16122;50.236;11.734;2023-07-13T02:08:33;23.60;52.50
29031;DHT22;16122;50.236;11.734;2023-07-13T02:10:59;23.60;52.50
29031;DHT22;16122;50.236;11.734;2023-07-13T02:13:25;23.60;52.50
29031;DHT22;16122;50.236;11.734;2023-07-13T02:15:51;23.60;53.10
29031;DHT22;16122;50.236;11.734;2023-07-13T02:18:18;23.60;52.40
29031;DHT22;16122;50.236;11.734;2023-07-13T02:20:44;23.60;52.50
29031;DHT22;16122;50.236;11.734;2023-07-13T02:23:10;23.60;52.50
29031;DHT22;16122;50.236;11.734;2023-07-13T02:25:36;23.60;52.50
29031;DHT22;16122;50.236;11.734;2023-07-13T02:28:02;23.50;52.40
29031;DHT22;16122;50.236;11.734;2023-07-13T02:30:29;23.50;52.40
29031;DHT22;16122;50.236;11.734;2023-07-13T02:32:56;23.50;52.40
29031;DHT22;16122;50.236;11.734;2023-07-13T02:35:22;23.50;52.50
29031;DHT22;16122;50.236;11.734;2023-07-13T02:37:48;23.50;52.40
29031;DHT22;16122;50.236;11.734;2023-07-13T02:40:14;23.50;52.50
29031;DHT22;16122;50.236;11.734;2023-07-13T02:42:40;23.50;52.50
29031;DHT22;16122;50.236;11.734;2023-07-13T02:45:07;23.50;52.50
29031;DHT22;16122;50.236;11.734;2023-07-13T02:47:33;23.50;52.60
29031;DHT22;16122;50.236;11.734;2023-07-13T02:49:59;23.50;52.50
29031;DHT22;16122;50.236;11.734;2023-07-13T02:52:25;23.50;52.50
29031;DHT22;16122;50.236;11.734;2023-07-13T02:54:51;23.50;52.50
29031;DHT22;16122;50.236;11.734;2023-07-13T02:57:17;23.50;52.60
29031;DHT22;16122;50.236;11.734;2023-07-13T02:59:43;23.40;52.60
29031;DHT22;16122;50.236;11.734;2023-07-13T03:02:09;23.40;52.60
29031;DHT22;16122;50.236;11.734;2023-07-13T03:04:36;23.40;52.70
29031;DHT22;16122;50.236;11.734;2023-07-13T03:07:03;23.40;52.70
29031;DHT22;16122;50.236;11.734;2023-07-13T03:09:35;23.40;52.80
29031;DHT22;16122;50.236;11.734;2023-07-13T03:12:03;23.50;52.90
29031;DHT22;16122;50.236;11.734;2023-07-13T03:14:31;23.40;52.90
29031;DHT22;16122;50.236;11.734;2023-07-13T03:16:59;23.40;52.80
29031;DHT22;16122;50.236;11.734;2023-07-13T03:19:28;23.40;52.80
29031;DHT22;16122;50.236;11.734;2023-07-13T03:21:54;23.40;52.90
29031;DHT22;16122;50.236;11.734;2023-07-13T03:24:20;23.40;52.90
29031;DHT22;16122;50.236;11.734;2023-07-13T03:26:50;23.30;52.90
29031;DHT22;16122;50.236;11.734;2023-07-13T03:29:17;23.30;52.90
29031;DHT22;16122;50.236;11.734;2023-07-13T03:31:44;23.30;53.00
29031;DHT22;16122;50.236;11.734;2023-07-13T03:34:09;23.30;53.00
29031;DHT22;16122;50.236;11.734;2023-07-13T03:36:37;23.30;53.00
29031;DHT22;16122;50.236;11.734;2023-07-13T03:39:05;23.30;53.00
29031;DHT22;16122;50.236;11.734;2023-07-13T03:41:44;23.30;52.90
29031;DHT22;16122;50.236;11.734;2023-07-13T03:44:12;23.30;53.00
29031;DHT22;16122;50.236;11.734;2023-07-13T03:46:38;23.30;52.90
29031;DHT22;16122;50.236;11.734;2023-07-13T03:49:05;23.30;52.90
29031;DHT22;16122;50.236;11.734;2023-07-13T03:51:32;23.30;52.90
29031;DHT22;16122;50.236;11.734;2023-07-13T03:53:59;23.30;53.00
29031;DHT22;16122;50.236;11.734;2023-07-13T03:56:25;23.30;53.00
29031;DHT22;16122;50.236;11.734;2023-07-13T03:58:51;23.20;53.00
29031;DHT22;16122;50.236;11.734;2023-07-13T04:01:21;23.20;52.90
29031;DHT22;16122;50.236;11.734;2023-07-13T04:03:48;23.30;52.90
29031;DHT22;16122;50.236;11.734;2023-07-13T04:06:20;23.20;52.80
29031;DHT22;16122;50.236;11.734;2023-07-13T04:08:48;23.20;52.90
29031;DHT22;16122;50.236;11.734;2023-07-13T04:11:16;23.20;53.60
29031;DHT22;16122;50.236;11.734;2023-07-13T04:13:42;23.30;53.10
29031;DHT22;16122;50.236;11.734;2023-07-13T04:16:08;23.30;53.20
29031;DHT22;16122;50.236;11.734;2023-07-13T04:18:34;23.30;53.10
29031;DHT22;16122;50.236;11.734;2023-07-13T04:21:00;23.20;53.00
29031;DHT22;16122;50.236;11.734;2023-07-13T04:23:26;23.20;53.00
29031;DHT22;16122;50.236;11.734;2023-07-13T04:25:52;23.20;53.00
29031;DHT22;16122;50.236;11.734;2023-07-13T04:28:21;23.20;53.00
29031;DHT22;16122;50.236;11.734;2023-07-13T04:30:47;23.20;53.10
29031;DHT22;16122;50.236;11.734;2023-07-13T04:33:12;23.20;53.10
29031;DHT22;16122;50.236;11.734;2023-07-13T04:35:39;23.20;53.10
29031;DHT22;16122;50.236;11.734;2023-07-13T04:38:04;23.00;53.10
29031;DHT22;16122;50.236;11.734;2023-07-13T04:40:31;22.70;53.10
29031;DHT22;16122;50.236;11.734;2023-07-13T04:42:57;22.50;53.70
29031;DHT22;16122;50.236;11.734;2023-07-13T04:45:23;22.40;54.40
29031;DHT22;16122;50.236;11.734;2023-07-13T04:47:50;22.20;55.30
29031;DHT22;16122;50.236;11.734;2023-07-13T04:50:16;22.20;55.70
29031;DHT22;16122;50.236;11.734;2023-07-13T04:52:46;22.20;55.20
29031;DHT22;16122;50.236;11.734;2023-07-13T04:55:13;22.30;55.10
29031;DHT22;16122;50.236;11.734;2023-07-13T04:57:39;22.20;55.20
29031;DHT22;16122;50.236;11.734;2023-07-13T05:00:05;22.20;55.70
29031;DHT22;16122;50.236;11.734;2023-07-13T05:02:33;22.10;55.40
29031;DHT22;16122;50.236;11.734;2023-07-13T05:04:59;22.10;55.60
29031;DHT22;16122;50.236;11.734;2023-07-13T05:07:26;22.00;55.20
29031;DHT22;16122;50.236;11.734;2023-07-13T05:09:52;22.00;55.20
29031;DHT22;16122;50.236;11.734;2023-07-13T05:12:18;22.00;55.20
29031;DHT22;16122;50.236;11.734;2023-07-13T05:14:44;21.90;55.50
29031;DHT22;16122;50.236;11.734;2023-07-13T05:17:10;21.90;55.80
29031;DHT22;16122;50.236;11.734;2023-07-13T05:19:36;21.90;56.10
29031;DHT22;16122;50.236;11.734;2023-07-13T05:22:02;21.90;56.40
29031;DHT22;16122;50.236;11.734;2023-07-13T05:24:28;21.90;56.10
29031;DHT22;16122;50.236;11.734;2023-07-13T05:26:54;22.00;55.80
29031;DHT22;16122;50.236;11.734;2023-07-13T05:29:21;22.00;55.90
29031;DHT22;16122;50.236;11.734;2023-07-13T05:31:48;22.00;55.70
29031;DHT22;16122;50.236;11.734;2023-07-13T05:34:14;22.00;55.60
29031;DHT22;16122;50.236;11.734;2023-07-13T05:36:40;22.00;55.60
29031;DHT22;16122;50.236;11.734;2023-07-13T05:39:06;22.00;55.50
29031;DHT22;16122;50.236;11.734;2023-07-13T05:41:32;22.00;54.90
29031;DHT22;16122;50.236;11.734;2023-07-13T05:43:57;22.00;54.60
29031;DHT22;16122;50.236;11.734;2023-07-13T05:46:24;22.00;54.60
29031;DHT22;16122;50.236;11.734;2023-07-13T05:48:50;22.00;54.40
29031;DHT22;16122;50.236;11.734;2023-07-13T05:51:16;22.00;54.40
29031;DHT22;16122;50.236;11.734;2023-07-13T05:53:42;22.00;54.10
29031;DHT22;16122;50.236;11.734;2023-07-13T05:56:08;22.00;54.30
29031;DHT22;16122;50.236;11.734;2023-07-13T05:58:34;22.10;54.30
29031;DHT22;16122;50.236;11.734;2023-07-13T06:01:10;22.10;54.00
29031;DHT22;16122;50.236;11.734;2023-07-13T06:03:36;22.10;54.00
29031;DHT22;16122;50.236;11.734;2023-07-13T06:06:05;22.10;53.50
29031;DHT22;16122;50.236;11.734;2023-07-13T06:08:31;22.10;53.40
29031;DHT22;16122;50.236;11.734;2023-07-13T06:11:08;22.10;53.20
29031;DHT22;16122;50.236;11.734;2023-07-13T06:13:35;22.10;52.50
29031;DHT22;16122;50.236;11.734;2023-07-13T06:16:02;22.10;52.00
29031;DHT22;16122;50.236;11.734;2023-07-13T06:18:31;22.20;52.00
29031;DHT22;16122;50.236;11.734;2023-07-13T06:20:57;22.20;51.90
29031;DHT22;16122;50.236;11.734;2023-07-13T06:23:24;22.20;51.90
29031;DHT22;16122;50.236;11.734;2023-07-13T06:25:50;22.20;52.00
29031;DHT22;16122;50.236;11.734;2023-07-13T06:28:16;22.30;51.90
29031;DHT22;16122;50.236;11.734;2023-07-13T06:30:42;22.20;51.20
29031;DHT22;16122;50.236;11.734;2023-07-13T06:33:07;22.20;51.60
29031;DHT22;16122;50.236;11.734;2023-07-13T06:35:33;22.20;52.00
29031;DHT22;16122;50.236;11.734;2023-07-13T06:37:59;22.20;51.70
29031;DHT22;16122;50.236;11.734;2023-07-13T06:40:25;22.30;51.70
29031;DHT22;16122;50.236;11.734;2023-07-13T06:42:53;22.20;51.00
29031;DHT22;16122;50.236;11.734;2023-07-13T06:45:19;22.20;50.90
29031;DHT22;16122;50.236;11.734;2023-07-13T06:47:45;22.20;51.60
29031;DHT22;16122;50.236;11.734;2023-07-13T06:50:11;22.20;51.50
29031;DHT22;16122;50.236;11.734;2023-07-13T06:52:36;22.20;51.20
29031;DHT22;16122;50.236;11.734;2023-07-13T06:55:03;22.20;51.20
29031;DHT22;16122;50.236;11.734;2023-07-13T06:57:29;22.20;51.20
29031;DHT22;16122;50.236;11.734;2023-07-13T06:59:54;22.20;50.60
29031;DHT22;16122;50.236;11.734;2023-07-13T07:02:20;22.20;50.60
29031;DHT22;16122;50.236;11.734;2023-07-13T07:04:46;22.30;51.10
29031;DHT22;16122;50.236;11.734;2023-07-13T07:07:12;22.30;51.60
29031;DHT22;16122;50.236;11.734;2023-07-13T07:09:38;22.40;51.90
29031;DHT22;16122;50.236;11.734;2023-07-13T07:12:04;22.40;52.10
29031;DHT22;16122;50.236;11.734;2023-07-13T07:14:30;22.40;52.30
29031;DHT22;16122;50.236;11.734;2023-07-13T07:16:56;22.50;52.50
29031;DHT22;16122;50.236;11.734;2023-07-13T07:19:25;22.40;52.60
29031;DHT22;16122;50.236;11.734;2023-07-13T07:21:51;22.50;52.70
29031;DHT22;16122;50.236;11.734;2023-07-13T07:24:17;22.50;52.80
29031;DHT22;16122;50.236;11.734;2023-07-13T07:26:43;22.50;52.80
29031;DHT22;16122;50.236;11.734;2023-07-13T07:29:08;22.50;52.90
29031;DHT22;16122;50.236;11.734;2023-07-13T07:31:34;22.60;53.00
29031;DHT22;16122;50.236;11.734;2023-07-13T07:34:00;22.60;53.00
29031;DHT22;16122;50.236;11.734;2023-07-13T07:36:26;22.60;53.10
29031;DHT22;16122;50.236;11.734;2023-07-13T07:38:53;22.60;53.10
29031;DHT22;16122;50.236;11.734;2023-07-13T07:41:19;22.60;53.20
29031;DHT22;16122;50.236;11.734;2023-07-13T07:43:45;22.60;53.20
29031;DHT22;16122;50.236;11.734;2023-07-13T07:46:11;22.60;53.20
29031;DHT22;16122;50.236;11.734;2023-07-13T07:48:36;22.70;53.30
29031;DHT22;16122;50.236;11.734;2023-07-13T07:51:02;22.70;53.40
29031;DHT22;16122;50.236;11.734;2023-07-13T07:53:28;22.70;53.30
29031;DHT22;16122;50.236;11.734;2023-07-13T07:55:54;22.70;53.30
29031;DHT22;16122;50.236;11.734;2023-07-13T07:58:20;22.70;53.40
29031;DHT22;16122;50.236;11.734;2023-07-13T08:00:46;22.70;53.40
29031;DHT22;16122;50.236;11.734;2023-07-13T08:03:12;22.70;53.40
29031;DHT22;16122;50.236;11.734;2023-07-13T08:05:38;22.70;53.40
29031;DHT22;16122;50.236;11.734;2023-07-13T08:08:04;22.80;53.50
29031;DHT22;16122;50.236;11.734;2023-07-13T08:10:30;22.70;53.50
29031;DHT22;16122;50.236;11.734;2023-07-13T08:12:55;22.80;53.50
29031;DHT22;16122;50.236;11.734;2023-07-13T08:15:22;22.80;53.50
29031;DHT22;16122;50.236;11.734;2023-07-13T08:17:49;22.80;53.60
29031;DHT22;16122;50.236;11.734;2023-07-13T08:20:15;22.80;53.60
29031;DHT22;16122;50.236;11.734;2023-07-13T08:22:41;22.80;53.60
29031;DHT22;16122;50.236;11.734;2023-07-13T08:25:07;22.80;53.60
29031;DHT22;16122;50.236;11.734;2023-07-13T08:27:33;22.80;53.60
29031;DHT22;16122;50.236;11.734;2023-07-13T08:29:59;22.80;53.60
29031;DHT22;16122;50.236;11.734;2023-07-13T08:32:25;22.80;53.60
29031;DHT22;16122;50.236;11.734;2023-07-13T08:34:51;22.80;54.30
29031;DHT22;16122;50.236;11.734;2023-07-13T08:37:18;22.90;53.80
29031;DHT22;16122;50.236;11.734;2023-07-13T08:39:44;22.80;53.70
29031;DHT22;16122;50.236;11.734;2023-07-13T08:45:04;22.90;53.80
29031;DHT22;16122;50.236;11.734;2023-07-13T08:47:35;22.90;53.80
29031;DHT22;16122;50.236;11.734;2023-07-13T08:50:04;22.90;53.90
29031;DHT22;16122;50.236;11.734;2023-07-13T08:52:38;22.90;53.90
29031;DHT22;16122;50.236;11.734;2023-07-13T08:55:17;22.90;53.90
29031;DHT22;16122;50.236;11.734;2023-07-13T08:57:48;22.90;54.00
29031;DHT22;16122;50.236;11.734;2023-07-13T09:00:14;22.90;54.00
29031;DHT22;16122;50.236;11.734;2023-07-13T09:03:01;22.90;53.90
29031;DHT22;16122;50.236;11.734;2023-07-13T09:05:40;22.90;53.90
29031;DHT22;16122;50.236;11.734;2023-07-13T09:08:43;22.90;53.90
29031;DHT22;16122;50.236;11.734;2023-07-13T09:16:43;22.90;54.00
29031;DHT22;16122;50.236;11.734;2023-07-13T09:19:24;22.90;53.90
29031;DHT22;16122;50.236;11.734;2023-07-13T09:21:53;22.90;53.90
29031;DHT22;16122;50.236;11.734;2023-07-13T09:24:46;22.90;54.00
29031;DHT22;16122;50.236;11.734;2023-07-13T09:27:21;23.00;54.00
29031;DHT22;16122;50.236;11.734;2023-07-13T09:32:41;23.00;53.90
29031;DHT22;16122;50.236;11.734;2023-07-13T09:35:15;23.00;53.90
29031;DHT22;16122;50.236;11.734;2023-07-13T09:37:43;23.00;53.90
29031;DHT22;16122;50.236;11.734;2023-07-13T09:43:15;23.00;53.90
29031;DHT22;16122;50.236;11.734;2023-07-13T09:45:45;23.00;53.90
29031;DHT22;16122;50.236;11.734;2023-07-13T09:48:13;23.00;53.90
29031;DHT22;16122;50.236;11.734;2023-07-13T09:50:40;23.00;53.80
29031;DHT22;16122;50.236;11.734;2023-07-13T09:53:16;23.00;53.80
29031;DHT22;16122;50.236;11.734;2023-07-13T09:55:44;23.00;53.80
29031;DHT22;16122;50.236;11.734;2023-07-13T09:58:19;23.00;53.80
29031;DHT22;16122;50.236;11.734;2023-07-13T10:00:59;23.10;53.90
29031;DHT22;16122;50.236;11.734;2023-07-13T10:03:34;23.10;53.90
29031;DHT22;16122;50.236;11.734;2023-07-13T10:06:16;23.10;53.90
29031;DHT22;16122;50.236;11.734;2023-07-13T10:08:45;23.00;53.80
29031;DHT22;16122;50.236;11.734;2023-07-13T10:11:21;23.10;53.90
29031;DHT22;16122;50.236;11.734;2023-07-13T10:16:22;23.10;53.90
29031;DHT22;16122;50.236;11.734;2023-07-13T10:18:51;23.10;53.90
29031;DHT22;16122;50.236;11.734;2023-07-13T10:21:22;23.10;53.90
29031;DHT22;16122;50.236;11.734;2023-07-13T10:23:58;23.10;53.90
29031;DHT22;16122;50.236;11.734;2023-07-13T10:26:29;23.10;53.90
29031;DHT22;16122;50.236;11.734;2023-07-13T10:29:00;23.10;53.90
29031;DHT22;16122;50.236;11.734;2023-07-13T10:31:27;23.10;53.90
29031;DHT22;16122;50.236;11.734;2023-07-13T10:33:53;23.10;53.90
29031;DHT22;16122;50.236;11.734;2023-07-13T10:38:51;23.10;53.90
29031;DHT22;16122;50.236;11.734;2023-07-13T10:41:21;23.10;53.90
29031;DHT22;16122;50.236;11.734;2023-07-13T10:43:54;23.10;53.90
29031;DHT22;16122;50.236;11.734;2023-07-13T10:46:23;23.10;54.00
29031;DHT22;16122;50.236;11.734;2023-07-13T10:48:55;23.10;54.00
29031;DHT22;16122;50.236;11.734;2023-07-13T10:51:23;23.10;54.00
29031;DHT22;16122;50.236;11.734;2023-07-13T10:54:20;23.10;54.00
29031;DHT22;16122;50.236;11.734;2023-07-13T10:57:06;23.10;54.00
29031;DHT22;16122;50.236;11.734;2023-07-13T10:59:34;23.10;54.00
29031;DHT22;16122;50.236;11.734;2023-07-13T11:04:40;23.10;54.00
29031;DHT22;16122;50.236;11.734;2023-07-13T11:07:28;23.20;54.00
29031;DHT22;16122;50.236;11.734;2023-07-13T11:09:56;23.10;54.00
29031;DHT22;16122;50.236;11.734;2023-07-13T11:22:51;23.20;54.00
29031;DHT22;16122;50.236;11.734;2023-07-13T11:41:27;23.20;54.10
29031;DHT22;16122;50.236;11.734;2023-07-13T11:44:01;23.20;54.00
29031;DHT22;16122;50.236;11.734;2023-07-13T11:46:30;23.20;54.10
29031;DHT22;16122;50.236;11.734;2023-07-13T11:48:56;23.20;54.10
29031;DHT22;16122;50.236;11.734;2023-07-13T11:51:28;23.20;54.10
29031;DHT22;16122;50.236;11.734;2023-07-13T11:53:56;23.20;54.00
29031;DHT22;16122;50.236;11.734;2023-07-13T11:56:24;23.20;54.00
29031;DHT22;16122;50.236;11.734;2023-07-13T11:58:53;23.20;54.00
29031;DHT22;16122;50.236;11.734;2023-07-13T12:01:29;23.20;54.00
29031;DHT22;16122;50.236;11.734;2023-07-13T12:04:04;23.20;53.90
29031;DHT22;16122;50.236;11.734;2023-07-13T12:06:36;23.20;53.90
29031;DHT22;16122;50.236;11.734;2023-07-13T12:09:12;23.20;54.00
29031;DHT22;16122;50.236;11.734;2023-07-13T12:11:41;23.20;53.90
29031;DHT22;16122;50.236;11.734;2023-07-13T12:14:18;23.20;54.60
29031;DHT22;16122;50.236;11.734;2023-07-13T12:16:46;23.30;54.00
29031;DHT22;16122;50.236;11.734;2023-07-13T12:19:30;23.20;54.00
29031;DHT22;16122;50.236;11.734;2023-07-13T12:21:58;23.20;54.00
29031;DHT22;16122;50.236;11.734;2023-07-13T12:24:25;23.20;54.00
29031;DHT22;16122;50.236;11.734;2023-07-13T12:27:03;23.20;54.00
29031;DHT22;16122;50.236;11.734;2023-07-13T12:29:32;23.30;54.10
29031;DHT22;16122;50.236;11.734;2023-07-13T12:31:59;23.20;54.00
29031;DHT22;16122;50.236;11.734;2023-07-13T12:34:26;23.30;54.10
29031;DHT22;16122;50.236;11.734;2023-07-13T12:36:59;23.20;54.10
29031;DHT22;16122;50.236;11.734;2023-07-13T12:39:34;23.20;54.10
29031;DHT22;16122;50.236;11.734;2023-07-13T12:44:50;23.30;54.10
29031;DHT22;16122;50.236;11.734;2023-07-13T12:47:20;23.20;54.10
29031;DHT22;16122;50.236;11.734;2023-07-13T12:49:53;23.30;54.20
29031;DHT22;16122;50.236;11.734;2023-07-13T12:52:28;23.30;54.20
29031;DHT22;16122;50.236;11.734;2023-07-13T12:55:07;23.30;54.20
29031;DHT22;16122;50.236;11.734;2023-07-13T12:57:52;23.30;54.20
29031;DHT22;16122;50.236;11.734;2023-07-13T13:02:54;23.30;54.20
29031;DHT22;16122;50.236;11.734;2023-07-13T13:05:21;23.30;54.30
29031;DHT22;16122;50.236;11.734;2023-07-13T13:07:49;23.30;54.30
29031;DHT22;16122;50.236;11.734;2023-07-13T13:10:15;23.30;54.30
29031;DHT22;16122;50.236;11.734;2023-07-13T13:12:41;23.30;54.30
29031;DHT22;16122;50.236;11.734;2023-07-13T13:15:11;23.30;54.30
29031;DHT22;16122;50.236;11.734;2023-07-13T13:17:37;23.30;54.30
29031;DHT22;16122;50.236;11.734;2023-07-13T13:20:20;23.30;54.30
29031;DHT22;16122;50.236;11.734;2023-07-13T13:22:47;23.30;54.30
29031;DHT22;16122;50.236;11.734;2023-07-13T13:25:14;23.30;54.30
29031;DHT22;16122;50.236;11.734;2023-07-13T13:27:44;23.30;54.30
29031;DHT22;16122;50.236;11.734;2023-07-13T13:30:15;23.30;54.30
29031;DHT22;16122;50.236;11.734;2023-07-13T13:32:46;23.30;54.30
29031;DHT22;16122;50.236;11.734;2023-07-13T13:35:21;23.30;54.30
29031;DHT22;16122;50.236;11.734;2023-07-13T13:37:47;23.30;54.30
29031;DHT22;16122;50.236;11.734;2023-07-13T13:40:18;23.30;54.30
29031;DHT22;16122;50.236;11.734;2023-07-13T13:42:44;23.30;54.30
29031;DHT22;16122;50.236;11.734;2023-07-13T13:45:10;23.30;54.30
29031;DHT22;16122;50.236;11.734;2023-07-13T13:47:38;23.30;54.30
29031;DHT22;16122;50.236;11.734;2023-07-13T13:50:16;23.30;54.30
29031;DHT22;16122;50.236;11.734;2023-07-13T13:52:43;23.30;54.30
29031;DHT22;16122;50.236;11.734;2023-07-13T13:55:14;23.30;54.30
29031;DHT22;16122;50.236;11.734;2023-07-13T13:57:41;23.30;54.30
29031;DHT22;16122;50.236;11.734;2023-07-13T14:00:09;23.30;54.30
29031;DHT22;16122;50.236;11.734;2023-07-13T14:02:41;23.30;54.30
29031;DHT22;16122;50.236;11.734;2023-07-13T14:05:12;23.30;54.30
29031;DHT22;16122;50.236;11.734;2023-07-13T14:07:38;23.30;54.30
29031;DHT22;16122;50.236;11.734;2023-07-13T14:10:14;23.30;54.30
29031;DHT22;16122;50.236;11.734;2023-07-13T14:12:42;23.30;54.30
29031;DHT22;16122;50.236;11.734;2023-07-13T14:15:30;23.40;54.40
29031;DHT22;16122;50.236;11.734;2023-07-13T14:17:59;23.30;54.30
29031;DHT22;16122;50.236;11.734;2023-07-13T14:20:25;23.30;54.30
29031;DHT22;16122;50.236;11.734;2023-07-13T14:22:52;23.40;54.40
29031;DHT22;16122;50.236;11.734;2023-07-13T14:25:19;23.30;54.30
29031;DHT22;16122;50.236;11.734;2023-07-13T14:27:48;23.40;54.40
29031;DHT22;16122;50.236;11.734;2023-07-13T14:30:20;23.40;54.40
29031;DHT22;16122;50.236;11.734;2023-07-13T14:32:47;23.40;54.40
29031;DHT22;16122;50.236;11.734;2023-07-13T14:35:15;23.40;54.40
29031;DHT22;16122;50.236;11.734;2023-07-13T14:37:43;23.40;54.40
29031;DHT22;16122;50.236;11.734;2023-07-13T14:40:31;23.40;54.40
29031;DHT22;16122;50.236;11.734;2023-07-13T14:42:58;23.40;54.40
29031;DHT22;16122;50.236;11.734;2023-07-13T14:45:24;23.40;54.40
29031;DHT22;16122;50.236;11.734;2023-07-13T14:47:51;23.40;54.40
29031;DHT22;16122;50.236;11.734;2023-07-13T14:50:30;23.40;54.40
29031;DHT22;16122;50.236;11.734;2023-07-13T14:52:56;23.40;54.40
29031;DHT22;16122;50.236;11.734;2023-07-13T14:55:22;23.40;54.40
29031;DHT22;16122;50.236;11.734;2023-07-13T14:57:49;23.40;54.40
29031;DHT22;16122;50.236;11.734;2023-07-13T15:00:20;23.40;54.40
29031;DHT22;16122;50.236;11.734;2023-07-13T15:02:54;23.40;54.40
29031;DHT22;16122;50.236;11.734;2023-07-13T15:05:28;23.40;54.40
29031;DHT22;16122;50.236;11.734;2023-07-13T15:08:01;23.40;54.40
29031;DHT22;16122;50.236;11.734;2023-07-13T15:10:32;23.40;54.40
29031;DHT22;16122;50.236;11.734;2023-07-13T15:13:14;23.40;54.40
29031;DHT22;16122;50.236;11.734;2023-07-13T15:15:43;23.40;54.40
29031;DHT22;16122;50.236;11.734;2023-07-13T15:18:12;23.40;54.40
29031;DHT22;16122;50.236;11.734;2023-07-13T15:20:38;23.40;54.30
29031;DHT22;16122;50.236;11.734;2023-07-13T15:23:04;23.40;54.40
29031;DHT22;16122;50.236;11.734;2023-07-13T15:25:33;23.40;54.40
29031;DHT22;16122;50.236;11.734;2023-07-13T15:28:00;23.40;54.40
29031;DHT22;16122;50.236;11.734;2023-07-13T15:30:30;23.40;54.40
29031;DHT22;16122;50.236;11.734;2023-07-13T15:32:58;23.40;54.50
29031;DHT22;16122;50.236;11.734;2023-07-13T15:35:28;23.40;54.50
29031;DHT22;16122;50.236;11.734;2023-07-13T15:37:54;23.40;54.40
29031;DHT22;16122;50.236;11.734;2023-07-13T15:40:20;23.40;54.50
29031;DHT22;16122;50.236;11.734;2023-07-13T15:42:49;23.40;54.50
29031;DHT22;16122;50.236;11.734;2023-07-13T15:45:23;23.40;54.50
29031;DHT22;16122;50.236;11.734;2023-07-13T15:47:51;23.40;54.40
29031;DHT22;16122;50.236;11.734;2023-07-13T15:50:22;23.40;54.60
29031;DHT22;16122;50.236;11.734;2023-07-13T15:52:51;23.40;54.50
29031;DHT22;16122;50.236;11.734;2023-07-13T15:55:17;23.40;54.50
29031;DHT22;16122;50.236;11.734;2023-07-13T15:57:46;23.40;54.50
29031;DHT22;16122;50.236;11.734;2023-07-13T16:00:23;23.40;54.60
29031;DHT22;16122;50.236;11.734;2023-07-13T16:02:50;23.40;54.60
29031;DHT22;16122;50.236;11.734;2023-07-13T16:05:17;23.40;54.60
29031;DHT22;16122;50.236;11.734;2023-07-13T16:07:45;23.40;54.60
29031;DHT22;16122;50.236;11.734;2023-07-13T16:10:26;23.50;54.60
29031;DHT22;16122;50.236;11.734;2023-07-13T16:12:55;23.50;54.60
29031;DHT22;16122;50.236;11.734;2023-07-13T16:15:22;23.50;54.70
29031;DHT22;16122;50.236;11.734;2023-07-13T16:17:48;23.50;54.70